TVS34M HEGN-LKMT
Flight info
| Callsign | TVS34M |
|---|---|
| Flight time | N/A |
| Altitude | 34000 |
| Route | HGD V608 NABED T55 KUNKI L321 REXUM M872 SOBAX DCT NOGLI L551 ANTAR/N0462F360 UN133 KOROS UG33 LUPIS UG18 GIKAS UN133 PEREN UL863 EVIVI L863 OKANA DCT PARAK DCT ABITU DCT MAVOR DCT UPLAV |
| Aircraft | B38M/M-SDE1FGHILORVWXY/HB1 |
Departure
| Time | 2026-04-28 15:08 |
|---|---|
| Airport | Hurghada International Airport (HEGN) |
Arrival
| Time | N/A |
|---|---|
| Airport | Leoš Janáček Airport Ostrava (LKMT) |
| Time | Latitude | Longitude | Altitude | Speed | Heading |
|---|---|---|---|---|---|
| 2026-04-28 14:44 | 27.17776 | 33.80668 | 61 ft | 0 kts | 75° |
| 2026-04-28 14:45 | 27.17775 | 33.80663 | 60 ft | 0 kts | 75° |
| 2026-04-28 14:56 | 27.17771 | 33.80649 | 54 ft | 4 kts | 75° |
| 2026-04-28 14:57 | 27.17765 | 33.80622 | 29 ft | 4 kts | 75° |
| 2026-04-28 14:57 | 27.17761 | 33.80604 | 52 ft | 4 kts | 75° |
| 2026-04-28 14:57 | 27.17755 | 33.80572 | 55 ft | 4 kts | 97° |
| 2026-04-28 14:57 | 27.17764 | 33.80551 | 57 ft | 4 kts | 148° |
| 2026-04-28 14:58 | 27.17787 | 33.80542 | 52 ft | 3 kts | 165° |
| 2026-04-28 14:58 | 27.17790 | 33.80541 | 52 ft | 2 kts | 165° |
| 2026-04-28 15:01 | 27.17780 | 33.80544 | 58 ft | 4 kts | 165° |
| 2026-04-28 15:02 | 27.17725 | 33.80561 | 53 ft | 10 kts | 165° |
| 2026-04-28 15:02 | 27.17652 | 33.80583 | 57 ft | 12 kts | 165° |
| 2026-04-28 15:02 | 27.17575 | 33.80606 | 58 ft | 10 kts | 165° |
| 2026-04-28 15:02 | 27.17519 | 33.80617 | 58 ft | 8 kts | 187° |
| 2026-04-28 15:03 | 27.17482 | 33.80576 | 55 ft | 8 kts | 256° |
| 2026-04-28 15:03 | 27.17463 | 33.80487 | 60 ft | 15 kts | 257° |
| 2026-04-28 15:03 | 27.17431 | 33.80346 | 47 ft | 21 kts | 256° |
| 2026-04-28 15:03 | 27.17392 | 33.80184 | 55 ft | 22 kts | 255° |
| 2026-04-28 15:04 | 27.17346 | 33.79991 | 59 ft | 29 kts | 255° |
| 2026-04-28 15:04 | 27.17292 | 33.79764 | 78 ft | 29 kts | 255° |
| 2026-04-28 15:04 | 27.17249 | 33.79580 | 101 ft | 18 kts | 255° |
| 2026-04-28 15:04 | 27.17180 | 33.79506 | 106 ft | 14 kts | 171° |
| 2026-04-28 15:05 | 27.17085 | 33.79534 | 107 ft | 14 kts | 166° |
| 2026-04-28 15:05 | 27.16979 | 33.79563 | 109 ft | 17 kts | 165° |
| 2026-04-28 15:05 | 27.16831 | 33.79609 | 109 ft | 28 kts | 165° |
| 2026-04-28 15:05 | 27.16612 | 33.79673 | 111 ft | 35 kts | 166° |
| 2026-04-28 15:06 | 27.16489 | 33.79710 | 111 ft | 35 kts | 165° |
| 2026-04-28 15:06 | 27.16258 | 33.79778 | 116 ft | 34 kts | 165° |
| 2026-04-28 15:06 | 27.16041 | 33.79843 | 117 ft | 31 kts | 165° |
| 2026-04-28 15:06 | 27.15923 | 33.79783 | 124 ft | 19 kts | 256° |
| 2026-04-28 15:07 | 27.15923 | 33.79680 | 118 ft | 12 kts | 324° |
| 2026-04-28 15:07 | 27.16019 | 33.79652 | 120 ft | 19 kts | 345° |
| 2026-04-28 15:07 | 27.16333 | 33.79559 | 113 ft | 82 kts | 345° |
| 2026-04-28 15:07 | 27.17091 | 33.79334 | 110 ft | 142 kts | 345° |
| 2026-04-28 15:08 | 27.18199 | 33.79001 | 206 ft | 181 kts | 345° |
| 2026-04-28 15:08 | 27.19411 | 33.78624 | 1024 ft | 175 kts | 345° |
| 2026-04-28 15:08 | 27.20569 | 33.78302 | 1859 ft | 175 kts | 346° |
| 2026-04-28 15:08 | 27.21838 | 33.77947 | 2287 ft | 201 kts | 345° |
| 2026-04-28 15:09 | 27.23288 | 33.77531 | 2769 ft | 225 kts | 340° |
| 2026-04-28 15:09 | 27.24515 | 33.76522 | 3743 ft | 223 kts | 307° |
| 2026-04-28 15:09 | 27.25126 | 33.74877 | 4461 ft | 238 kts | 280° |
| 2026-04-28 15:09 | 27.25226 | 33.73623 | 4869 ft | 250 kts | 275° |
| 2026-04-28 15:10 | 27.25313 | 33.70953 | 5875 ft | 261 kts | 274° |
| 2026-04-28 15:10 | 27.25383 | 33.68903 | 6725 ft | 265 kts | 274° |
| 2026-04-28 15:10 | 27.25460 | 33.66813 | 7500 ft | 270 kts | 275° |
| 2026-04-28 15:10 | 27.25543 | 33.64691 | 8347 ft | 273 kts | 274° |
| 2026-04-28 15:11 | 27.25625 | 33.62528 | 9125 ft | 279 kts | 274° |
| 2026-04-28 15:11 | 27.25708 | 33.60323 | 9897 ft | 284 kts | 274° |
| 2026-04-28 15:11 | 27.25792 | 33.58089 | 10437 ft | 296 kts | 274° |
| 2026-04-28 15:11 | 27.25881 | 33.55697 | 10736 ft | 316 kts | 274° |
| 2026-04-28 15:12 | 27.25976 | 33.53133 | 10986 ft | 336 kts | 273° |
| 2026-04-28 15:12 | 27.26075 | 33.50439 | 11250 ft | 353 kts | 273° |
| 2026-04-28 15:12 | 27.26177 | 33.47640 | 11670 ft | 363 kts | 273° |
| 2026-04-28 15:12 | 27.26280 | 33.44807 | 12386 ft | 363 kts | 273° |
| 2026-04-28 15:13 | 27.26384 | 33.41948 | 13024 ft | 366 kts | 272° |
| 2026-04-28 15:13 | 27.26486 | 33.39110 | 13618 ft | 369 kts | 272° |
| 2026-04-28 15:13 | 27.26590 | 33.36222 | 14182 ft | 371 kts | 272° |
| 2026-04-28 15:13 | 27.26694 | 33.33308 | 14689 ft | 374 kts | 272° |
| 2026-04-28 15:14 | 27.26797 | 33.30381 | 15237 ft | 375 kts | 272° |
| 2026-04-28 15:14 | 27.26902 | 33.27430 | 15746 ft | 379 kts | 272° |
| 2026-04-28 15:14 | 27.27006 | 33.24459 | 16270 ft | 380 kts | 272° |
| 2026-04-28 15:14 | 27.27108 | 33.21511 | 16775 ft | 382 kts | 272° |
| 2026-04-28 15:15 | 27.27213 | 33.18520 | 17294 ft | 384 kts | 272° |
| 2026-04-28 15:15 | 27.27281 | 33.16519 | 17601 ft | 385 kts | 273° |
| 2026-04-28 15:15 | 27.27419 | 33.12478 | 18261 ft | 387 kts | 273° |
| 2026-04-28 15:15 | 27.27521 | 33.09473 | 18687 ft | 389 kts | 272° |
| 2026-04-28 15:16 | 27.27624 | 33.06426 | 19088 ft | 391 kts | 272° |
| 2026-04-28 15:16 | 27.27726 | 33.03354 | 19507 ft | 392 kts | 272° |
| 2026-04-28 15:16 | 27.27829 | 33.00275 | 19928 ft | 394 kts | 272° |
| 2026-04-28 15:16 | 27.27932 | 32.97182 | 20332 ft | 397 kts | 272° |
| 2026-04-28 15:17 | 27.28033 | 32.94116 | 20734 ft | 399 kts | 272° |
| 2026-04-28 15:17 | 27.28135 | 32.90990 | 21163 ft | 400 kts | 272° |
| 2026-04-28 15:17 | 27.28236 | 32.87848 | 21565 ft | 402 kts | 272° |
| 2026-04-28 15:17 | 27.28338 | 32.84688 | 21975 ft | 405 kts | 272° |
| 2026-04-28 15:18 | 27.28440 | 32.81511 | 22384 ft | 407 kts | 272° |
| 2026-04-28 15:18 | 27.28541 | 32.78327 | 22786 ft | 409 kts | 272° |
| 2026-04-28 15:18 | 27.28642 | 32.75123 | 23198 ft | 411 kts | 273° |
| 2026-04-28 15:18 | 27.28743 | 32.71903 | 23594 ft | 413 kts | 273° |
| 2026-04-28 15:19 | 27.28842 | 32.68699 | 23945 ft | 415 kts | 273° |
| 2026-04-28 15:19 | 27.28942 | 32.65454 | 24329 ft | 416 kts | 273° |
| 2026-04-28 15:19 | 27.29042 | 32.62194 | 24692 ft | 418 kts | 273° |
| 2026-04-28 15:19 | 27.29141 | 32.58914 | 25044 ft | 419 kts | 273° |
| 2026-04-28 15:20 | 27.29240 | 32.55627 | 25390 ft | 421 kts | 273° |
| 2026-04-28 15:20 | 27.29338 | 32.52362 | 25730 ft | 422 kts | 273° |
| 2026-04-28 15:20 | 27.29436 | 32.49049 | 26068 ft | 424 kts | 273° |
| 2026-04-28 15:20 | 27.29534 | 32.45721 | 26404 ft | 425 kts | 273° |
| 2026-04-28 15:21 | 27.29631 | 32.42392 | 26731 ft | 427 kts | 273° |
| 2026-04-28 15:21 | 27.29728 | 32.39058 | 27049 ft | 428 kts | 273° |
| 2026-04-28 15:21 | 27.29823 | 32.35740 | 27356 ft | 430 kts | 273° |
| 2026-04-28 15:21 | 27.29930 | 32.32365 | 27673 ft | 431 kts | 276° |
| 2026-04-28 15:22 | 27.30544 | 32.29083 | 28024 ft | 429 kts | 290° |
| 2026-04-28 15:22 | 27.31939 | 32.26128 | 28477 ft | 429 kts | 303° |
| 2026-04-28 15:22 | 27.33676 | 32.23398 | 28879 ft | 429 kts | 304° |
| 2026-04-28 15:22 | 27.35450 | 32.20701 | 29306 ft | 427 kts | 304° |
| 2026-04-28 15:23 | 27.37238 | 32.18033 | 29763 ft | 426 kts | 305° |
| 2026-04-28 15:23 | 27.39028 | 32.15392 | 30177 ft | 424 kts | 305° |
| 2026-04-28 15:23 | 27.40799 | 32.12795 | 30574 ft | 422 kts | 304° |
| 2026-04-28 15:23 | 27.42581 | 32.10188 | 31005 ft | 419 kts | 304° |
| 2026-04-28 15:24 | 27.44349 | 32.07601 | 31433 ft | 415 kts | 304° |
| 2026-04-28 15:24 | 27.46104 | 32.05033 | 31857 ft | 412 kts | 303° |
| 2026-04-28 15:24 | 27.47851 | 32.02476 | 32270 ft | 409 kts | 303° |
| 2026-04-28 15:24 | 27.49583 | 31.99938 | 32683 ft | 407 kts | 303° |
| 2026-04-28 15:25 | 27.51299 | 31.97422 | 33078 ft | 404 kts | 302° |
| 2026-04-28 15:25 | 27.53009 | 31.94916 | 33470 ft | 401 kts | 302° |
| 2026-04-28 15:25 | 27.54704 | 31.92428 | 33837 ft | 399 kts | 302° |
| 2026-04-28 15:25 | 27.56402 | 31.89936 | 33991 ft | 400 kts | 302° |
| 2026-04-28 15:26 | 27.58067 | 31.87491 | 33991 ft | 396 kts | 302° |
| 2026-04-28 15:26 | 27.61419 | 31.82564 | 33997 ft | 396 kts | 302° |
| 2026-04-28 15:27 | 27.64772 | 31.77627 | 34008 ft | 396 kts | 302° |
| 2026-04-28 15:27 | 27.68128 | 31.72682 | 34019 ft | 396 kts | 302° |
| 2026-04-28 15:28 | 27.71483 | 31.67733 | 34018 ft | 397 kts | 302° |
| 2026-04-28 15:28 | 27.74819 | 31.62806 | 34025 ft | 397 kts | 302° |
| 2026-04-28 15:29 | 27.78174 | 31.57846 | 34031 ft | 397 kts | 302° |
| 2026-04-28 15:29 | 27.80966 | 31.53712 | 34029 ft | 397 kts | 302° |
| 2026-04-28 15:30 | 27.84323 | 31.48739 | 34034 ft | 397 kts | 302° |
| 2026-04-28 15:30 | 27.87673 | 31.43768 | 34036 ft | 397 kts | 302° |
| 2026-04-28 15:31 | 27.91005 | 31.38820 | 34037 ft | 397 kts | 302° |
| 2026-04-28 15:31 | 27.94359 | 31.33832 | 34035 ft | 397 kts | 302° |
| 2026-04-28 15:32 | 27.97708 | 31.28847 | 34047 ft | 397 kts | 302° |
| 2026-04-28 15:32 | 28.01035 | 31.23890 | 34041 ft | 397 kts | 302° |
| 2026-04-28 15:33 | 28.04385 | 31.18894 | 34043 ft | 397 kts | 302° |
| 2026-04-28 15:33 | 28.07639 | 31.13847 | 34042 ft | 395 kts | 298° |
| 2026-04-28 15:34 | 28.10674 | 31.08652 | 34032 ft | 396 kts | 299° |
| 2026-04-28 15:34 | 28.13718 | 31.03491 | 34034 ft | 396 kts | 299° |
| 2026-04-28 15:35 | 28.16778 | 30.98305 | 34040 ft | 396 kts | 299° |
| 2026-04-28 15:35 | 28.21365 | 30.90522 | 34038 ft | 395 kts | 299° |
| 2026-04-28 15:36 | 28.24419 | 30.85333 | 34037 ft | 395 kts | 299° |
| 2026-04-28 15:36 | 28.27457 | 30.80163 | 34033 ft | 395 kts | 299° |
| 2026-04-28 15:37 | 28.30510 | 30.74962 | 34037 ft | 396 kts | 299° |
| 2026-04-28 15:37 | 28.33564 | 30.69754 | 34032 ft | 396 kts | 299° |
| 2026-04-28 15:38 | 28.36599 | 30.64570 | 34031 ft | 396 kts | 299° |
| 2026-04-28 15:38 | 28.39647 | 30.59359 | 34031 ft | 396 kts | 299° |
| 2026-04-28 15:39 | 28.42700 | 30.54132 | 34026 ft | 396 kts | 300° |
| 2026-04-28 15:39 | 28.45729 | 30.48940 | 34026 ft | 396 kts | 299° |
| 2026-04-28 15:40 | 28.48774 | 30.43716 | 34025 ft | 396 kts | 300° |
| 2026-04-28 15:40 | 28.51815 | 30.38491 | 34026 ft | 396 kts | 300° |
| 2026-04-28 15:41 | 28.54849 | 30.33270 | 34021 ft | 396 kts | 300° |
| 2026-04-28 15:41 | 28.57890 | 30.28033 | 34017 ft | 396 kts | 300° |
| 2026-04-28 15:42 | 28.60924 | 30.22800 | 34011 ft | 396 kts | 300° |
| 2026-04-28 15:42 | 28.63941 | 30.17591 | 34016 ft | 396 kts | 300° |
| 2026-04-28 15:43 | 28.66980 | 30.12337 | 34008 ft | 396 kts | 300° |
| 2026-04-28 15:43 | 28.70005 | 30.07099 | 34002 ft | 396 kts | 300° |
| 2026-04-28 15:44 | 28.73033 | 30.01851 | 34011 ft | 396 kts | 300° |
| 2026-04-28 15:44 | 28.76054 | 29.96609 | 33998 ft | 396 kts | 300° |
| 2026-04-28 15:45 | 28.79060 | 29.91386 | 34002 ft | 396 kts | 300° |
| 2026-04-28 15:45 | 28.82080 | 29.86132 | 33993 ft | 396 kts | 300° |
| 2026-04-28 15:46 | 28.85100 | 29.80871 | 33997 ft | 396 kts | 300° |
| 2026-04-28 15:46 | 28.88098 | 29.75642 | 33988 ft | 396 kts | 300° |
| 2026-04-28 15:47 | 28.91115 | 29.70374 | 34001 ft | 396 kts | 300° |
| 2026-04-28 15:47 | 28.94124 | 29.65112 | 33984 ft | 395 kts | 300° |
| 2026-04-28 15:48 | 28.97136 | 29.59840 | 33993 ft | 395 kts | 300° |
| 2026-04-28 15:48 | 29.00141 | 29.54572 | 33989 ft | 395 kts | 300° |
| 2026-04-28 15:49 | 29.03122 | 29.49341 | 33987 ft | 395 kts | 300° |
| 2026-04-28 15:49 | 29.06129 | 29.44060 | 33986 ft | 395 kts | 300° |
| 2026-04-28 15:50 | 29.09127 | 29.38787 | 33985 ft | 395 kts | 300° |
| 2026-04-28 15:50 | 29.10817 | 29.36298 | 33971 ft | 400 kts | 312° |
| 2026-04-28 15:50 | 29.13066 | 29.34438 | 33980 ft | 410 kts | 327° |
| 2026-04-28 15:51 | 29.15808 | 29.33334 | 33982 ft | 426 kts | 341° |
| 2026-04-28 15:51 | 29.18820 | 29.33060 | 33993 ft | 439 kts | 351° |
| 2026-04-28 15:51 | 29.24917 | 29.32950 | 33984 ft | 440 kts | 351° |
| 2026-04-28 15:52 | 29.31050 | 29.32890 | 33987 ft | 440 kts | 351° |
| 2026-04-28 15:52 | 29.37198 | 29.32843 | 33986 ft | 440 kts | 351° |
| 2026-04-28 15:53 | 29.43291 | 29.32797 | 33984 ft | 440 kts | 351° |
| 2026-04-28 15:53 | 29.49417 | 29.32752 | 33984 ft | 440 kts | 351° |
| 2026-04-28 15:54 | 29.55545 | 29.32706 | 33989 ft | 440 kts | 351° |
| 2026-04-28 15:54 | 29.61678 | 29.32660 | 33983 ft | 439 kts | 351° |
| 2026-04-28 15:55 | 29.67763 | 29.32614 | 33982 ft | 439 kts | 351° |
| 2026-04-28 15:55 | 29.73892 | 29.32568 | 33986 ft | 439 kts | 351° |
| 2026-04-28 15:56 | 29.80011 | 29.32522 | 33979 ft | 439 kts | 351° |
| 2026-04-28 15:56 | 29.86119 | 29.32476 | 33983 ft | 439 kts | 351° |
| 2026-04-28 15:57 | 29.92196 | 29.32430 | 33984 ft | 438 kts | 351° |
| 2026-04-28 15:57 | 29.98303 | 29.32384 | 33983 ft | 439 kts | 351° |
| 2026-04-28 15:58 | 30.04421 | 29.32337 | 33982 ft | 438 kts | 351° |
| 2026-04-28 15:58 | 30.10491 | 29.32292 | 33985 ft | 439 kts | 351° |
| 2026-04-28 15:59 | 30.15607 | 29.32253 | 33987 ft | 438 kts | 351° |
| 2026-04-28 15:59 | 30.22702 | 29.32199 | 33987 ft | 438 kts | 351° |
| 2026-04-28 16:00 | 30.28807 | 29.32153 | 33991 ft | 438 kts | 351° |
| 2026-04-28 16:00 | 30.34913 | 29.32099 | 33994 ft | 438 kts | 351° |
| 2026-04-28 16:01 | 30.41047 | 29.32038 | 34006 ft | 449 kts | 359° |
| 2026-04-28 16:01 | 30.47377 | 29.31987 | 33998 ft | 461 kts | 359° |
| 2026-04-28 16:02 | 30.53872 | 29.31928 | 34281 ft | 467 kts | 359° |
| 2026-04-28 16:02 | 30.57126 | 29.31899 | 34540 ft | 467 kts | 359° |
| 2026-04-28 16:02 | 30.60378 | 29.31870 | 34801 ft | 466 kts | 359° |
| 2026-04-28 16:03 | 30.63620 | 29.31840 | 35069 ft | 466 kts | 359° |
| 2026-04-28 16:03 | 30.66862 | 29.31811 | 35321 ft | 465 kts | 359° |
| 2026-04-28 16:03 | 30.70098 | 29.31782 | 35561 ft | 465 kts | 359° |
| 2026-04-28 16:03 | 30.73286 | 29.31753 | 35792 ft | 464 kts | 359° |
| 2026-04-28 16:04 | 30.76518 | 29.31723 | 35977 ft | 464 kts | 359° |
| 2026-04-28 16:04 | 30.79755 | 29.31695 | 36012 ft | 464 kts | 359° |
| 2026-04-28 16:04 | 30.86208 | 29.31636 | 35998 ft | 462 kts | 359° |
| 2026-04-28 16:05 | 30.92654 | 29.31578 | 36000 ft | 463 kts | 359° |
| 2026-04-28 16:05 | 30.99102 | 29.31519 | 35999 ft | 463 kts | 359° |
| 2026-04-28 16:06 | 31.05507 | 29.31461 | 35999 ft | 463 kts | 359° |
| 2026-04-28 16:06 | 31.11954 | 29.31402 | 36000 ft | 463 kts | 359° |
| 2026-04-28 16:07 | 31.18397 | 29.31343 | 36002 ft | 463 kts | 359° |
| 2026-04-28 16:07 | 31.24607 | 29.29825 | 36008 ft | 461 kts | 342° |
| 2026-04-28 16:08 | 31.27664 | 29.28681 | 35992 ft | 462 kts | 341° |
| 2026-04-28 16:08 | 31.33786 | 29.26316 | 36000 ft | 462 kts | 341° |
| 2026-04-28 16:09 | 31.42900 | 29.22732 | 35999 ft | 462 kts | 341° |
| 2026-04-28 16:10 | 31.52039 | 29.19126 | 35999 ft | 462 kts | 341° |
| 2026-04-28 16:10 | 31.61185 | 29.15511 | 36000 ft | 462 kts | 341° |
| 2026-04-28 16:11 | 31.73380 | 29.10678 | 35998 ft | 462 kts | 341° |
| 2026-04-28 16:12 | 31.82486 | 29.07061 | 36002 ft | 462 kts | 341° |
| 2026-04-28 16:13 | 31.91629 | 29.03421 | 36002 ft | 462 kts | 341° |
| 2026-04-28 16:14 | 32.02789 | 28.98969 | 35999 ft | 462 kts | 341° |
| 2026-04-28 16:15 | 32.14984 | 28.94090 | 36000 ft | 462 kts | 341° |
| 2026-04-28 16:15 | 32.21086 | 28.91643 | 36002 ft | 462 kts | 341° |
| 2026-04-28 16:16 | 32.30197 | 28.87984 | 36003 ft | 462 kts | 341° |
| 2026-04-28 16:17 | 32.39332 | 28.84307 | 36001 ft | 462 kts | 341° |
| 2026-04-28 16:17 | 32.45423 | 28.81851 | 36001 ft | 462 kts | 341° |
| 2026-04-28 16:18 | 32.51481 | 28.79405 | 36003 ft | 462 kts | 341° |
| 2026-04-28 16:18 | 32.57576 | 28.76940 | 36000 ft | 462 kts | 341° |
| 2026-04-28 16:19 | 32.63667 | 28.74474 | 36003 ft | 462 kts | 341° |
| 2026-04-28 16:19 | 32.69754 | 28.72006 | 36001 ft | 462 kts | 341° |
| 2026-04-28 16:20 | 32.75848 | 28.69531 | 36000 ft | 462 kts | 341° |
| 2026-04-28 16:20 | 32.81939 | 28.67053 | 35998 ft | 462 kts | 341° |
| 2026-04-28 16:21 | 32.88026 | 28.64574 | 35999 ft | 462 kts | 341° |
| 2026-04-28 16:21 | 32.94079 | 28.62105 | 36003 ft | 462 kts | 341° |
| 2026-04-28 16:22 | 33.00177 | 28.59614 | 36001 ft | 462 kts | 341° |
| 2026-04-28 16:22 | 33.06264 | 28.57124 | 35999 ft | 462 kts | 341° |
| 2026-04-28 16:23 | 33.12357 | 28.54628 | 36000 ft | 462 kts | 341° |
| 2026-04-28 16:23 | 33.18418 | 28.52142 | 36001 ft | 462 kts | 341° |
| 2026-04-28 16:24 | 33.24498 | 28.49644 | 36003 ft | 462 kts | 341° |
| 2026-04-28 16:24 | 33.30584 | 28.47139 | 36001 ft | 462 kts | 341° |
| 2026-04-28 16:25 | 33.36675 | 28.44629 | 35998 ft | 462 kts | 340° |
| 2026-04-28 16:25 | 33.42768 | 28.42115 | 36000 ft | 462 kts | 340° |
| 2026-04-28 16:26 | 33.48814 | 28.39615 | 35997 ft | 462 kts | 340° |
| 2026-04-28 16:26 | 33.54901 | 28.37096 | 36001 ft | 462 kts | 340° |
| 2026-04-28 16:27 | 33.60983 | 28.34575 | 35999 ft | 462 kts | 340° |
| 2026-04-28 16:28 | 33.70107 | 28.30787 | 36003 ft | 462 kts | 340° |
| 2026-04-28 16:28 | 33.76192 | 28.28256 | 36002 ft | 462 kts | 340° |
| 2026-04-28 16:29 | 33.84951 | 28.23496 | 36004 ft | 461 kts | 335° |
| 2026-04-28 16:30 | 33.93681 | 28.18632 | 35999 ft | 462 kts | 334° |
| 2026-04-28 16:30 | 33.99500 | 28.15329 | 36004 ft | 462 kts | 334° |
| 2026-04-28 16:31 | 34.05320 | 28.12018 | 36001 ft | 462 kts | 334° |
| 2026-04-28 16:31 | 34.11135 | 28.08705 | 36000 ft | 462 kts | 334° |
| 2026-04-28 16:32 | 34.16931 | 28.05398 | 36000 ft | 462 kts | 334° |
| 2026-04-28 16:32 | 34.25654 | 28.00410 | 36001 ft | 462 kts | 334° |
| 2026-04-28 16:33 | 34.30485 | 27.97643 | 36002 ft | 462 kts | 334° |
| 2026-04-28 16:33 | 34.37287 | 27.93741 | 36001 ft | 462 kts | 334° |
| 2026-04-28 16:34 | 34.43064 | 27.90422 | 36003 ft | 462 kts | 334° |
| 2026-04-28 16:34 | 34.48884 | 27.87072 | 35999 ft | 462 kts | 334° |
| 2026-04-28 16:35 | 34.54699 | 27.83721 | 36004 ft | 462 kts | 334° |
| 2026-04-28 16:35 | 34.60515 | 27.80364 | 36000 ft | 462 kts | 334° |
| 2026-04-28 16:36 | 34.66287 | 27.77026 | 36001 ft | 462 kts | 334° |
| 2026-04-28 16:36 | 34.72101 | 27.73660 | 35999 ft | 462 kts | 334° |
| 2026-04-28 16:37 | 34.77912 | 27.70289 | 35997 ft | 462 kts | 334° |
| 2026-04-28 16:38 | 34.86626 | 27.65225 | 36001 ft | 462 kts | 334° |
| 2026-04-28 16:38 | 34.92429 | 27.61846 | 36000 ft | 462 kts | 334° |
| 2026-04-28 16:39 | 34.98195 | 27.58484 | 36004 ft | 462 kts | 334° |
| 2026-04-28 16:39 | 35.04004 | 27.55091 | 36002 ft | 462 kts | 334° |
| 2026-04-28 16:40 | 35.09809 | 27.51694 | 36000 ft | 462 kts | 334° |
| 2026-04-28 16:40 | 35.15614 | 27.48292 | 36004 ft | 462 kts | 334° |
| 2026-04-28 16:41 | 35.21416 | 27.44888 | 36004 ft | 462 kts | 334° |
| 2026-04-28 16:41 | 35.27186 | 27.41496 | 36001 ft | 462 kts | 334° |
| 2026-04-28 16:42 | 35.32988 | 27.38080 | 35999 ft | 462 kts | 334° |
| 2026-04-28 16:42 | 35.38794 | 27.34656 | 36004 ft | 462 kts | 334° |
| 2026-04-28 16:43 | 35.44589 | 27.31233 | 35997 ft | 462 kts | 334° |
| 2026-04-28 16:43 | 35.50390 | 27.27801 | 35997 ft | 462 kts | 334° |
| 2026-04-28 16:44 | 35.56184 | 27.24368 | 35998 ft | 462 kts | 334° |
| 2026-04-28 16:44 | 35.61950 | 27.20946 | 35999 ft | 462 kts | 334° |
| 2026-04-28 16:45 | 35.67753 | 27.17496 | 35998 ft | 462 kts | 334° |
| 2026-04-28 16:45 | 35.73543 | 27.14048 | 36000 ft | 462 kts | 334° |
| 2026-04-28 16:46 | 35.79337 | 27.10592 | 35997 ft | 462 kts | 334° |
| 2026-04-28 16:46 | 35.85134 | 27.07129 | 36001 ft | 462 kts | 334° |
| 2026-04-28 16:47 | 35.90891 | 27.03685 | 35997 ft | 462 kts | 334° |
| 2026-04-28 16:47 | 35.96685 | 27.00212 | 36003 ft | 462 kts | 334° |
| 2026-04-28 16:48 | 36.02482 | 26.96733 | 36001 ft | 462 kts | 334° |
| 2026-04-28 16:48 | 36.08237 | 26.93272 | 36002 ft | 462 kts | 334° |
| 2026-04-28 16:49 | 36.14025 | 26.89786 | 35997 ft | 462 kts | 334° |
| 2026-04-28 16:49 | 36.19829 | 26.86284 | 35999 ft | 462 kts | 334° |
| 2026-04-28 16:50 | 36.25586 | 26.82805 | 36002 ft | 462 kts | 334° |
| 2026-04-28 16:50 | 36.31369 | 26.79305 | 36000 ft | 462 kts | 333° |
| 2026-04-28 16:51 | 36.37157 | 26.75796 | 36000 ft | 462 kts | 333° |
| 2026-04-28 16:51 | 36.42942 | 26.72283 | 36000 ft | 462 kts | 333° |
| 2026-04-28 16:52 | 36.48693 | 26.68784 | 36000 ft | 462 kts | 333° |
| 2026-04-28 16:52 | 36.54471 | 26.65263 | 36001 ft | 462 kts | 333° |
| 2026-04-28 16:53 | 36.60258 | 26.61731 | 35997 ft | 462 kts | 333° |
| 2026-04-28 16:53 | 36.66031 | 26.58202 | 36000 ft | 462 kts | 333° |
| 2026-04-28 16:54 | 36.71778 | 26.54682 | 36000 ft | 462 kts | 333° |
| 2026-04-28 16:54 | 36.77560 | 26.51135 | 35999 ft | 462 kts | 333° |
| 2026-04-28 16:55 | 36.83333 | 26.47588 | 36002 ft | 462 kts | 333° |
| 2026-04-28 16:55 | 36.89115 | 26.44030 | 35997 ft | 462 kts | 333° |
| 2026-04-28 16:56 | 36.94890 | 26.40469 | 36001 ft | 462 kts | 333° |
| 2026-04-28 16:56 | 37.00664 | 26.36903 | 36001 ft | 462 kts | 333° |
| 2026-04-28 16:57 | 37.06400 | 26.33354 | 36000 ft | 462 kts | 333° |
| 2026-04-28 16:57 | 37.12184 | 26.29770 | 36000 ft | 462 kts | 333° |
| 2026-04-28 16:58 | 37.16979 | 26.26794 | 36004 ft | 462 kts | 333° |
| 2026-04-28 16:58 | 37.22731 | 26.23218 | 36000 ft | 462 kts | 333° |
| 2026-04-28 16:59 | 37.28505 | 26.19622 | 35999 ft | 462 kts | 333° |
| 2026-04-28 16:59 | 37.34270 | 26.16026 | 36000 ft | 462 kts | 333° |
| 2026-04-28 17:00 | 37.40042 | 26.12419 | 35999 ft | 462 kts | 333° |
| 2026-04-28 17:00 | 37.45804 | 26.08812 | 35997 ft | 462 kts | 333° |
| 2026-04-28 17:01 | 37.51538 | 26.05217 | 36001 ft | 462 kts | 333° |
| 2026-04-28 17:01 | 37.57306 | 26.01594 | 36001 ft | 462 kts | 333° |
| 2026-04-28 17:02 | 37.63066 | 25.97969 | 36002 ft | 462 kts | 333° |
| 2026-04-28 17:02 | 37.68838 | 25.94332 | 36002 ft | 462 kts | 333° |
| 2026-04-28 17:03 | 37.77434 | 25.88901 | 36004 ft | 462 kts | 333° |
| 2026-04-28 17:03 | 37.83195 | 25.85254 | 36002 ft | 462 kts | 333° |
| 2026-04-28 17:04 | 37.91841 | 25.79768 | 36001 ft | 462 kts | 333° |
| 2026-04-28 17:05 | 38.00435 | 25.74302 | 35998 ft | 462 kts | 333° |
| 2026-04-28 17:06 | 38.09062 | 25.68799 | 36003 ft | 462 kts | 333° |
| 2026-04-28 17:06 | 38.17684 | 25.63285 | 35999 ft | 462 kts | 333° |
| 2026-04-28 17:07 | 38.23431 | 25.59601 | 36001 ft | 462 kts | 333° |
| 2026-04-28 17:07 | 38.29191 | 25.55903 | 36003 ft | 462 kts | 333° |
| 2026-04-28 17:08 | 38.34933 | 25.52210 | 36001 ft | 462 kts | 333° |
| 2026-04-28 17:08 | 38.40643 | 25.48530 | 36004 ft | 463 kts | 333° |
| 2026-04-28 17:09 | 38.46423 | 25.44799 | 35998 ft | 463 kts | 333° |
| 2026-04-28 17:09 | 38.52135 | 25.41105 | 36001 ft | 463 kts | 333° |
| 2026-04-28 17:10 | 38.57892 | 25.37375 | 35997 ft | 462 kts | 333° |
| 2026-04-28 17:10 | 38.63634 | 25.33648 | 35999 ft | 463 kts | 333° |
| 2026-04-28 17:11 | 38.69338 | 25.29939 | 36002 ft | 463 kts | 333° |
| 2026-04-28 17:11 | 38.75083 | 25.26197 | 35997 ft | 463 kts | 333° |
| 2026-04-28 17:12 | 38.80833 | 25.22445 | 36001 ft | 463 kts | 333° |
| 2026-04-28 17:12 | 38.86571 | 25.18693 | 35999 ft | 463 kts | 333° |
| 2026-04-28 17:13 | 38.92272 | 25.14960 | 35998 ft | 463 kts | 333° |
| 2026-04-28 17:13 | 38.98003 | 25.11199 | 35998 ft | 463 kts | 333° |
| 2026-04-28 17:14 | 39.03737 | 25.07430 | 35999 ft | 463 kts | 333° |
| 2026-04-28 17:14 | 39.09485 | 25.03645 | 35999 ft | 463 kts | 332° |
| 2026-04-28 17:15 | 39.15222 | 24.99860 | 36000 ft | 463 kts | 332° |
| 2026-04-28 17:15 | 39.20950 | 24.96073 | 35999 ft | 463 kts | 332° |
| 2026-04-28 17:16 | 39.26650 | 24.92299 | 36004 ft | 463 kts | 332° |
| 2026-04-28 17:16 | 39.32379 | 24.88499 | 35999 ft | 463 kts | 332° |
| 2026-04-28 17:17 | 39.38115 | 24.84685 | 36000 ft | 463 kts | 332° |
| 2026-04-28 17:17 | 39.43843 | 24.80871 | 35997 ft | 463 kts | 332° |
| 2026-04-28 17:18 | 39.49560 | 24.77057 | 36001 ft | 463 kts | 332° |
| 2026-04-28 17:18 | 39.55248 | 24.73256 | 36001 ft | 463 kts | 332° |
| 2026-04-28 17:19 | 39.60983 | 24.69416 | 36001 ft | 463 kts | 332° |
| 2026-04-28 17:19 | 39.66713 | 24.65571 | 36003 ft | 463 kts | 332° |
| 2026-04-28 17:20 | 39.71467 | 24.62376 | 36003 ft | 463 kts | 332° |
| 2026-04-28 17:20 | 39.78112 | 24.57902 | 36001 ft | 463 kts | 332° |
| 2026-04-28 17:21 | 39.83826 | 24.54047 | 36000 ft | 463 kts | 332° |
| 2026-04-28 17:22 | 39.92408 | 24.48243 | 36000 ft | 463 kts | 332° |
| 2026-04-28 17:22 | 39.98092 | 24.44391 | 36004 ft | 463 kts | 332° |
| 2026-04-28 17:23 | 40.06662 | 24.38567 | 36001 ft | 463 kts | 332° |
| 2026-04-28 17:23 | 40.12376 | 24.34675 | 35997 ft | 463 kts | 332° |
| 2026-04-28 17:24 | 40.18064 | 24.30794 | 36001 ft | 463 kts | 332° |
| 2026-04-28 17:24 | 40.23769 | 24.26893 | 35997 ft | 463 kts | 332° |
| 2026-04-28 17:25 | 40.32346 | 24.21015 | 36000 ft | 463 kts | 332° |
| 2026-04-28 17:26 | 40.38014 | 24.17121 | 36000 ft | 463 kts | 332° |
| 2026-04-28 17:26 | 40.43756 | 24.13169 | 36003 ft | 463 kts | 332° |
| 2026-04-28 17:27 | 40.49421 | 24.09262 | 36001 ft | 463 kts | 332° |
| 2026-04-28 17:27 | 40.55130 | 24.05318 | 36003 ft | 463 kts | 332° |
| 2026-04-28 17:28 | 40.60832 | 24.01370 | 36000 ft | 463 kts | 332° |
| 2026-04-28 17:28 | 40.69345 | 23.95463 | 36002 ft | 463 kts | 332° |
| 2026-04-28 17:29 | 40.75051 | 23.91495 | 36000 ft | 463 kts | 332° |
| 2026-04-28 17:30 | 40.83600 | 23.85536 | 36001 ft | 463 kts | 332° |
| 2026-04-28 17:30 | 40.92145 | 23.79562 | 36001 ft | 463 kts | 332° |
| 2026-04-28 17:31 | 41.00684 | 23.73575 | 36001 ft | 463 kts | 332° |
| 2026-04-28 17:32 | 41.09183 | 23.67599 | 36003 ft | 463 kts | 332° |
| 2026-04-28 17:32 | 41.14873 | 23.63588 | 36000 ft | 463 kts | 332° |
| 2026-04-28 17:33 | 41.20565 | 23.59568 | 35997 ft | 463 kts | 332° |
| 2026-04-28 17:33 | 41.24332 | 23.56902 | 35998 ft | 463 kts | 332° |
| 2026-04-28 17:34 | 41.31920 | 23.51524 | 35999 ft | 463 kts | 332° |
| 2026-04-28 17:34 | 41.37605 | 23.47485 | 36001 ft | 463 kts | 332° |
| 2026-04-28 17:35 | 41.43357 | 23.43635 | 36003 ft | 463 kts | 334° |
| 2026-04-28 17:35 | 41.49117 | 23.39884 | 36003 ft | 463 kts | 333° |
| 2026-04-28 17:36 | 41.54927 | 23.36086 | 36000 ft | 463 kts | 333° |
| 2026-04-28 17:36 | 41.60717 | 23.32293 | 36000 ft | 463 kts | 333° |
| 2026-04-28 17:37 | 41.66516 | 23.28487 | 36000 ft | 463 kts | 333° |
| 2026-04-28 17:37 | 41.72264 | 23.24707 | 36002 ft | 463 kts | 333° |
| 2026-04-28 17:38 | 41.78053 | 23.20892 | 35999 ft | 463 kts | 333° |
| 2026-04-28 17:38 | 41.83832 | 23.17077 | 36002 ft | 463 kts | 333° |
| 2026-04-28 17:39 | 41.89614 | 23.13251 | 36002 ft | 463 kts | 333° |
| 2026-04-28 17:40 | 41.98286 | 23.07499 | 35998 ft | 463 kts | 333° |
| 2026-04-28 17:40 | 42.04061 | 23.03659 | 35999 ft | 463 kts | 333° |
| 2026-04-28 17:41 | 42.08856 | 23.00464 | 36004 ft | 463 kts | 333° |
| 2026-04-28 17:41 | 42.14635 | 22.96606 | 36002 ft | 463 kts | 333° |
| 2026-04-28 17:42 | 42.20411 | 22.92743 | 35999 ft | 463 kts | 333° |
| 2026-04-28 17:42 | 42.26181 | 22.88877 | 36001 ft | 463 kts | 333° |
| 2026-04-28 17:43 | 42.31963 | 22.84998 | 35999 ft | 463 kts | 333° |
| 2026-04-28 17:43 | 42.37734 | 22.81121 | 35995 ft | 463 kts | 333° |
| 2026-04-28 17:44 | 42.43513 | 22.77230 | 35997 ft | 463 kts | 333° |
| 2026-04-28 17:44 | 42.49251 | 22.73359 | 35999 ft | 463 kts | 333° |
| 2026-04-28 17:45 | 42.55013 | 22.69464 | 36004 ft | 463 kts | 333° |
| 2026-04-28 17:45 | 42.60787 | 22.65552 | 36004 ft | 463 kts | 333° |
| 2026-04-28 17:46 | 42.66555 | 22.61636 | 35999 ft | 463 kts | 333° |
| 2026-04-28 17:46 | 42.72319 | 22.57715 | 36001 ft | 463 kts | 333° |
| 2026-04-28 17:47 | 42.78080 | 22.53787 | 36001 ft | 463 kts | 333° |
| 2026-04-28 17:47 | 42.83847 | 22.49849 | 36002 ft | 463 kts | 333° |
| 2026-04-28 17:48 | 42.89585 | 22.45955 | 36001 ft | 463 kts | 333° |
| 2026-04-28 17:48 | 42.95361 | 22.42026 | 36004 ft | 463 kts | 333° |
| 2026-04-28 17:49 | 43.01135 | 22.38089 | 35998 ft | 463 kts | 333° |
| 2026-04-28 17:49 | 43.06902 | 22.34149 | 36002 ft | 463 kts | 333° |
| 2026-04-28 17:50 | 43.12632 | 22.30225 | 35997 ft | 463 kts | 333° |
| 2026-04-28 17:50 | 43.18411 | 22.26260 | 35996 ft | 463 kts | 333° |
| 2026-04-28 17:51 | 43.24168 | 22.22301 | 35999 ft | 463 kts | 333° |
| 2026-04-28 17:51 | 43.29939 | 22.18325 | 36001 ft | 463 kts | 333° |
| 2026-04-28 17:52 | 43.35660 | 22.14373 | 36000 ft | 463 kts | 333° |
| 2026-04-28 17:52 | 43.44318 | 22.08379 | 36004 ft | 463 kts | 333° |
| 2026-04-28 17:53 | 43.50036 | 22.04409 | 36002 ft | 463 kts | 333° |
| 2026-04-28 17:53 | 43.55786 | 22.00409 | 35999 ft | 463 kts | 333° |
| 2026-04-28 17:54 | 43.61544 | 21.96394 | 35998 ft | 463 kts | 333° |
| 2026-04-28 17:54 | 43.67309 | 21.92366 | 36002 ft | 463 kts | 333° |
| 2026-04-28 17:55 | 43.73053 | 21.88343 | 36001 ft | 463 kts | 333° |
| 2026-04-28 17:55 | 43.78771 | 21.84330 | 36003 ft | 463 kts | 333° |
| 2026-04-28 17:56 | 43.84518 | 21.80289 | 36000 ft | 463 kts | 333° |
| 2026-04-28 17:56 | 43.90270 | 21.76234 | 36001 ft | 463 kts | 333° |
| 2026-04-28 17:57 | 43.96027 | 21.72168 | 35999 ft | 463 kts | 333° |
| 2026-04-28 17:57 | 44.01737 | 21.68126 | 35998 ft | 463 kts | 333° |
| 2026-04-28 17:58 | 44.07489 | 21.64045 | 35997 ft | 463 kts | 333° |
| 2026-04-28 17:58 | 44.13210 | 21.59978 | 36000 ft | 463 kts | 332° |
| 2026-04-28 17:59 | 44.18960 | 21.55880 | 36004 ft | 463 kts | 332° |
| 2026-04-28 17:59 | 44.24705 | 21.51777 | 35997 ft | 463 kts | 332° |
| 2026-04-28 18:00 | 44.30438 | 21.47674 | 36000 ft | 463 kts | 332° |
| 2026-04-28 18:00 | 44.36139 | 21.43584 | 35999 ft | 463 kts | 332° |
| 2026-04-28 18:01 | 44.41875 | 21.39461 | 36002 ft | 463 kts | 332° |
| 2026-04-28 18:01 | 44.47609 | 21.35330 | 35998 ft | 463 kts | 332° |
| 2026-04-28 18:02 | 44.53147 | 21.31330 | 36001 ft | 463 kts | 332° |
| 2026-04-28 18:02 | 44.58890 | 21.27175 | 36000 ft | 463 kts | 332° |
| 2026-04-28 18:03 | 44.64589 | 21.23041 | 35999 ft | 463 kts | 332° |
| 2026-04-28 18:03 | 44.70318 | 21.18877 | 36000 ft | 463 kts | 332° |
| 2026-04-28 18:04 | 44.76046 | 21.14704 | 35997 ft | 463 kts | 332° |
| 2026-04-28 18:04 | 44.81743 | 21.10544 | 35999 ft | 463 kts | 332° |
| 2026-04-28 18:05 | 44.86507 | 21.07059 | 35998 ft | 463 kts | 332° |
| 2026-04-28 18:05 | 44.93213 | 21.02141 | 35999 ft | 463 kts | 332° |
| 2026-04-28 18:06 | 44.98894 | 20.97965 | 36001 ft | 463 kts | 332° |
| 2026-04-28 18:06 | 45.04617 | 20.93747 | 35998 ft | 463 kts | 332° |
| 2026-04-28 18:07 | 45.10329 | 20.89530 | 36001 ft | 463 kts | 332° |
| 2026-04-28 18:07 | 45.16050 | 20.85295 | 36001 ft | 463 kts | 332° |
| 2026-04-28 18:08 | 45.21734 | 20.81079 | 36000 ft | 463 kts | 332° |
| 2026-04-28 18:08 | 45.27439 | 20.76837 | 36003 ft | 463 kts | 332° |
| 2026-04-28 18:09 | 45.33153 | 20.72579 | 35998 ft | 463 kts | 332° |
| 2026-04-28 18:09 | 45.38871 | 20.68308 | 36001 ft | 463 kts | 332° |
| 2026-04-28 18:10 | 45.44543 | 20.64062 | 35999 ft | 463 kts | 332° |
| 2026-04-28 18:10 | 45.50285 | 20.59753 | 35997 ft | 463 kts | 332° |
| 2026-04-28 18:11 | 45.55953 | 20.55490 | 35997 ft | 463 kts | 332° |
| 2026-04-28 18:11 | 45.61662 | 20.51186 | 36004 ft | 463 kts | 332° |
| 2026-04-28 18:12 | 45.67334 | 20.46901 | 36001 ft | 463 kts | 332° |
| 2026-04-28 18:12 | 45.73036 | 20.42583 | 35998 ft | 463 kts | 332° |
| 2026-04-28 18:13 | 45.78736 | 20.38256 | 36000 ft | 463 kts | 332° |
| 2026-04-28 18:13 | 45.84437 | 20.33918 | 35999 ft | 463 kts | 332° |
| 2026-04-28 18:14 | 45.90135 | 20.29574 | 35999 ft | 463 kts | 332° |
| 2026-04-28 18:14 | 45.95833 | 20.25220 | 36000 ft | 463 kts | 332° |
| 2026-04-28 18:15 | 46.01496 | 20.20884 | 35997 ft | 463 kts | 332° |
| 2026-04-28 18:15 | 46.07202 | 20.16504 | 36004 ft | 463 kts | 332° |
| 2026-04-28 18:16 | 46.12892 | 20.12126 | 36000 ft | 463 kts | 332° |
| 2026-04-28 18:16 | 46.18542 | 20.07735 | 36001 ft | 463 kts | 331° |
| 2026-04-28 18:17 | 46.24224 | 20.03300 | 36002 ft | 463 kts | 331° |
| 2026-04-28 18:17 | 46.29901 | 19.98863 | 35999 ft | 463 kts | 331° |
| 2026-04-28 18:18 | 46.35576 | 19.94416 | 35998 ft | 463 kts | 331° |
| 2026-04-28 18:18 | 46.40289 | 19.90715 | 36004 ft | 463 kts | 331° |
| 2026-04-28 18:19 | 46.46925 | 19.85492 | 36003 ft | 463 kts | 331° |
| 2026-04-28 18:19 | 46.52555 | 19.81049 | 36004 ft | 463 kts | 331° |
| 2026-04-28 18:20 | 46.58219 | 19.76569 | 36000 ft | 463 kts | 331° |
| 2026-04-28 18:20 | 46.63888 | 19.72073 | 36000 ft | 463 kts | 331° |
| 2026-04-28 18:21 | 46.69515 | 19.67600 | 36673 ft | 462 kts | 330° |
| 2026-04-28 18:21 | 46.72267 | 19.65409 | 36671 ft | 438 kts | 330° |
| 2026-04-28 18:21 | 46.74034 | 19.64001 | 36624 ft | 421 kts | 330° |
| 2026-04-28 18:22 | 46.76584 | 19.61967 | 36422 ft | 413 kts | 330° |
| 2026-04-28 18:22 | 46.79099 | 19.59959 | 36204 ft | 411 kts | 330° |
| 2026-04-28 18:22 | 46.84095 | 19.55961 | 36133 ft | 413 kts | 330° |
| 2026-04-28 18:23 | 46.89130 | 19.51925 | 36128 ft | 412 kts | 330° |
| 2026-04-28 18:23 | 46.94123 | 19.47914 | 36127 ft | 412 kts | 330° |
| 2026-04-28 18:24 | 46.98300 | 19.44552 | 36130 ft | 412 kts | 330° |
| 2026-04-28 18:24 | 47.04173 | 19.39814 | 36133 ft | 412 kts | 330° |
| 2026-04-28 18:25 | 47.09198 | 19.35751 | 36131 ft | 412 kts | 330° |
| 2026-04-28 18:26 | 47.16714 | 19.29657 | 36129 ft | 412 kts | 330° |
| 2026-04-28 18:26 | 47.21733 | 19.25577 | 36131 ft | 412 kts | 330° |
| 2026-04-28 18:27 | 47.26708 | 19.21523 | 36131 ft | 412 kts | 330° |
| 2026-04-28 18:27 | 47.31696 | 19.17450 | 36134 ft | 411 kts | 330° |
| 2026-04-28 18:28 | 47.36706 | 19.13350 | 36130 ft | 411 kts | 330° |
| 2026-04-28 18:28 | 47.41715 | 19.09243 | 36130 ft | 411 kts | 329° |
| 2026-04-28 18:29 | 47.46722 | 19.05127 | 36132 ft | 411 kts | 329° |
| 2026-04-28 18:29 | 47.51721 | 19.01010 | 36125 ft | 411 kts | 329° |
| 2026-04-28 18:30 | 47.56731 | 18.96874 | 36132 ft | 412 kts | 329° |
| 2026-04-28 18:30 | 47.61705 | 18.92759 | 35946 ft | 410 kts | 329° |
| 2026-04-28 18:30 | 47.64199 | 18.90692 | 35705 ft | 409 kts | 329° |
| 2026-04-28 18:31 | 47.66684 | 18.88630 | 35464 ft | 409 kts | 329° |
| 2026-04-28 18:31 | 47.69172 | 18.86563 | 35254 ft | 408 kts | 329° |
| 2026-04-28 18:31 | 47.71649 | 18.84504 | 35030 ft | 406 kts | 329° |
| 2026-04-28 18:31 | 47.74120 | 18.82448 | 34660 ft | 407 kts | 329° |
| 2026-04-28 18:32 | 47.76580 | 18.80398 | 34236 ft | 405 kts | 329° |
| 2026-04-28 18:32 | 47.79041 | 18.78345 | 33753 ft | 404 kts | 329° |
| 2026-04-28 18:32 | 47.81467 | 18.76318 | 33274 ft | 406 kts | 329° |
| 2026-04-28 18:32 | 47.83934 | 18.74255 | 32781 ft | 408 kts | 329° |
| 2026-04-28 18:33 | 47.86420 | 18.72175 | 32299 ft | 410 kts | 329° |
| 2026-04-28 18:33 | 47.88917 | 18.70083 | 31822 ft | 412 kts | 329° |
| 2026-04-28 18:33 | 47.91430 | 18.67975 | 31355 ft | 414 kts | 329° |
| 2026-04-28 18:33 | 47.93944 | 18.65864 | 30888 ft | 417 kts | 329° |
| 2026-04-28 18:34 | 47.96483 | 18.63729 | 30429 ft | 419 kts | 328° |
| 2026-04-28 18:34 | 47.99031 | 18.61584 | 30143 ft | 422 kts | 328° |
| 2026-04-28 18:34 | 48.01591 | 18.59428 | 30102 ft | 424 kts | 328° |
| 2026-04-28 18:35 | 48.06724 | 18.55095 | 30124 ft | 425 kts | 328° |
| 2026-04-28 18:35 | 48.11876 | 18.50736 | 30126 ft | 425 kts | 328° |
| 2026-04-28 18:36 | 48.17030 | 18.46368 | 30131 ft | 425 kts | 328° |
| 2026-04-28 18:36 | 48.22188 | 18.41986 | 30127 ft | 425 kts | 328° |
| 2026-04-28 18:37 | 48.27309 | 18.37626 | 30125 ft | 425 kts | 328° |
| 2026-04-28 18:37 | 48.32446 | 18.33191 | 30123 ft | 424 kts | 324° |
| 2026-04-28 18:37 | 48.34638 | 18.30252 | 30143 ft | 421 kts | 312° |
| 2026-04-28 18:38 | 48.36668 | 18.27068 | 30132 ft | 422 kts | 313° |
| 2026-04-28 18:38 | 48.38693 | 18.23904 | 29486 ft | 420 kts | 313° |
| 2026-04-28 18:38 | 48.40701 | 18.20728 | 28899 ft | 414 kts | 313° |
| 2026-04-28 18:38 | 48.42667 | 18.17597 | 28250 ft | 409 kts | 313° |
| 2026-04-28 18:39 | 48.44606 | 18.14500 | 27388 ft | 416 kts | 312° |
| 2026-04-28 18:39 | 48.46613 | 18.11287 | 26466 ft | 424 kts | 312° |
| 2026-04-28 18:39 | 48.48090 | 18.08921 | 25968 ft | 428 kts | 312° |
| 2026-04-28 18:39 | 48.50135 | 18.05640 | 25301 ft | 430 kts | 312° |
| 2026-04-28 18:40 | 48.52176 | 18.02343 | 24561 ft | 428 kts | 311° |
| 2026-04-28 18:40 | 48.54203 | 17.99022 | 23459 ft | 432 kts | 311° |
| 2026-04-28 18:40 | 48.56248 | 17.95676 | 22584 ft | 431 kts | 312° |
| 2026-04-28 18:40 | 48.58271 | 17.92360 | 21945 ft | 424 kts | 312° |
| 2026-04-28 18:41 | 48.60255 | 17.89106 | 21359 ft | 417 kts | 312° |
| 2026-04-28 18:41 | 48.62222 | 17.85919 | 20773 ft | 411 kts | 315° |
| 2026-04-28 18:41 | 48.64535 | 17.83411 | 20118 ft | 410 kts | 332° |
| 2026-04-28 18:41 | 48.67177 | 17.81913 | 19476 ft | 409 kts | 340° |
| 2026-04-28 18:42 | 48.69892 | 17.80634 | 18842 ft | 407 kts | 341° |
| 2026-04-28 18:42 | 48.72499 | 17.79441 | 18234 ft | 404 kts | 341° |
| 2026-04-28 18:42 | 48.74623 | 17.78487 | 17713 ft | 401 kts | 341° |